M I D A S
Marine Information and Data Acquisition System
Tripno 351 of the Zeeleeuw from 2002-10-29 09:26:45 to 2002-10-29 16:50:00
Back to CruiseResearch ActivitiesStationsMapUnderway DataData graphs

EquipmentUnitsComment
TimeDGPSUTC
LatitudeDGPSDM.mWGS84
LongitudeDGPSDM.mWGS84
HeadingGyrodeg 
SOGDGPSknotsSpeed over ground
COGDGPSdegCourse over ground
DepthEcho soundermeters200 kHz
Missing or incorrect values are displayed as -999
Navigation data collected by the RV Zeeleeuw from 2002-10-29 09:26:45 to 2002-10-29 16:50:00
                                                                                    Next 1000 lines
Time Latitude Longitude Heading SOG COG Depth
2002-10-29 09:26:52 51°13.685 2°55.838 103 3.3 283.1 -999
2002-10-29 09:26:57 51°13.686 2°55.831 101.8 3.2 282.2 -999
2002-10-29 09:27:02 51°13.687 2°55.825 100.5 3.1 281.1 -999
2002-10-29 09:27:07 51°13.688 2°55.818 99 3 280.1 -999
2002-10-29 09:27:12 51°13.688 2°55.812 97.5 2.9 278.5 -999
2002-10-29 09:27:17 51°13.689 2°55.806 96.2 2.9 277.7 9.6
2002-10-29 09:27:21 51°13.689 2°55.801 94.7 2.8 276.5 10.5
2002-10-29 09:27:26 51°13.689 2°55.795 93.3 2.7 275.3 10.9
2002-10-29 09:27:31 51°13.689 2°55.789 91.8 2.6 273 11.4
2002-10-29 09:27:36 51°13.689 2°55.784 90.5 2.5 270.9 12.1
2002-10-29 09:27:41 51°13.689 2°55.778 89.2 2.5 270 12.5
2002-10-29 09:27:46 51°13.689 2°55.773 88 2.4 269.6 12.8
2002-10-29 09:27:51 51°13.689 2°55.771 85.5 1.6 270.9 12.9
2002-10-29 09:27:56 51°13.69 2°55.77 80.2 0.9 278.7 12.9
2002-10-29 09:28:01 51°13.691 2°55.771 72.5 0.4 16.7 12.9
2002-10-29 09:28:06 51°13.692 2°55.774 63.2 1.3 48.5 12.8
2002-10-29 09:28:10 51°13.694 2°55.778 52.8 2.3 46.8 12.1
2002-10-29 09:28:15 51°13.698 2°55.782 41.7 3.2 39.1 11.9
2002-10-29 09:28:21 51°13.705 2°55.787 31 3.8 28.6 11.5
2002-10-29 09:28:26 51°13.711 2°55.789 21 4.3 20.4 10.9
2002-10-29 09:28:30 51°13.717 2°55.79 10.3 4.9 7.7 10.7
2002-10-29 09:28:36 51°13.726 2°55.788 359.5 5.3 355.4 10.3
2002-10-29 09:28:41 51°13.734 2°55.784 350 5.6 347.5 9.3
2002-10-29 09:28:46 51°13.741 2°55.778 339 5.9 339.6 9
2002-10-29 09:28:51 51°13.749 2°55.767 328 6.6 326.2 9.2
2002-10-29 09:28:56 51°13.755 2°55.755 317.5 7.3 316.6 9.2
2002-10-29 09:29:01 51°13.761 2°55.741 311.3 7.6 308.6 9
2002-10-29 09:29:06 51°13.768 2°55.727 310.3 7.7 305.7 9
2002-10-29 09:29:10 51°13.773 2°55.716 311.3 7.7 305.6 9.3
2002-10-29 09:29:16 51°13.781 2°55.7 311.3 7.7 306.4 9.6
2002-10-29 09:29:21 51°13.787 2°55.686 312.5 7.8 307.1 9.7
2002-10-29 09:29:26 51°13.794 2°55.673 315.8 7.8 309.5 9.9
2002-10-29 09:29:31 51°13.802 2°55.662 320.5 7.8 314.5 10.2
2002-10-29 09:29:36 51°13.811 2°55.651 325.3 7.8 318.6 10.5
2002-10-29 09:29:41 51°13.82 2°55.641 328.7 7.8 322.7 10.4
2002-10-29 09:29:46 51°13.829 2°55.631 331.3 7.8 325.2 10.7
2002-10-29 09:29:51 51°13.838 2°55.622 333.7 7.8 326.9 10.5
2002-10-29 09:29:56 51°13.847 2°55.613 336 7.9 329.1 10.4
2002-10-29 09:30:01 51°13.857 2°55.605 338.8 7.9 331.4 10.1
2002-10-29 09:30:06 51°13.867 2°55.598 340.3 7.9 333.3 10.3
2002-10-29 09:30:11 51°13.877 2°55.59 340.2 7.9 335 10.4
2002-10-29 09:30:16 51°13.887 2°55.583 340.3 7.9 335 10.4
2002-10-29 09:30:21 51°13.897 2°55.576 341.3 8 335.6 10.1
2002-10-29 09:30:26 51°13.907 2°55.568 341.5 8 336 9.9
2002-10-29 09:30:31 51°13.917 2°55.561 341.5 8 336.2 9.8
2002-10-29 09:30:36 51°13.928 2°55.554 342.2 8.1 336.6 9.7
2002-10-29 09:30:41 51°13.938 2°55.547 342.3 8.1 336.7 9.8
2002-10-29 09:30:46 51°13.948 2°55.54 342 8.1 336.5 9.8
2002-10-29 09:30:51 51°13.959 2°55.533 341.5 8.2 336.2 9.6
2002-10-29 09:30:56 51°13.969 2°55.525 341.7 8.2 336.3 9.8
2002-10-29 09:31:01 51°13.98 2°55.518 342.3 8.2 336.3 10.3
2002-10-29 09:31:06 51°13.99 2°55.511 342.7 8.2 336.6 9.5
2002-10-29 09:31:11 51°14 2°55.503 342.7 8.3 336.4 9.6
2002-10-29 09:31:16 51°14.011 2°55.496 343.2 8.2 336.9 9.7
2002-10-29 09:31:21 51°14.021 2°55.49 344 8.2 337.4 9.8
2002-10-29 09:31:26 51°14.032 2°55.483 344.3 8.2 338 9.8
2002-10-29 09:31:31 51°14.042 2°55.477 344.5 7.9 338.6 9.8
2002-10-29 09:31:36 51°14.052 2°55.471 344 7.7 338.7 9.8
2002-10-29 09:31:41 51°14.061 2°55.465 343.8 7.5 338.5 9.5
2002-10-29 09:31:46 51°14.071 2°55.459 344.2 7.3 338.4 9.4
2002-10-29 09:31:50 51°14.078 2°55.454 343.8 7.2 338.6 9.7
2002-10-29 09:31:56 51°14.089 2°55.447 343.3 7 337.9 9.7
2002-10-29 09:32:01 51°14.097 2°55.442 343.2 6.9 337.6 9.7
2002-10-29 09:32:06 51°14.106 2°55.436 342.7 6.7 337.5 9.8
2002-10-29 09:32:11 51°14.114 2°55.43 342.2 6.6 337.2 9.6
2002-10-29 09:32:14 51°14.119 2°55.427 341.7 6.4 336.8 9.6
2002-10-29 09:32:21 51°14.13 2°55.419 341.2 6.3 336.2 9.5
2002-10-29 09:32:26 51°14.138 2°55.414 340.5 6.2 336.1 9.7
2002-10-29 09:32:31 51°14.146 2°55.408 339.3 6.1 335.1 10
2002-10-29 09:32:36 51°14.153 2°55.402 338.2 6.1 334.3 9.7
2002-10-29 09:32:41 51°14.16 2°55.396 336.7 6 332.7 10
2002-10-29 09:32:46 51°14.168 2°55.389 335.3 5.9 331.7 9.6
2002-10-29 09:32:51 51°14.175 2°55.383 334 5.9 330.2 9.8
2002-10-29 09:32:56 51°14.181 2°55.376 332.8 5.8 329 9.4
2002-10-29 09:33:01 51°14.188 2°55.37 331.5 5.7 328.2 9.7
2002-10-29 09:33:06 51°14.195 2°55.363 330 5.7 327.2 9.8
2002-10-29 09:33:10 51°14.2 2°55.357 328.8 5.7 325.9 6.6
2002-10-29 09:33:16 51°14.207 2°55.348 327.7 5.6 324.5 9.8
2002-10-29 09:33:21 51°14.213 2°55.341 326.8 5.5 323.6 7.1
2002-10-29 09:33:26 51°14.219 2°55.334 325.5 5.5 321.8 9.9
2002-10-29 09:33:31 51°14.225 2°55.326 323.7 5.4 319.9 9.8
2002-10-29 09:33:36 51°14.23 2°55.318 322 5.4 317.9 9.8
2002-10-29 09:33:41 51°14.236 2°55.31 320.5 5.3 317 9.9
2002-10-29 09:33:46 51°14.241 2°55.302 319.5 5.3 316 9.9
2002-10-29 09:33:50 51°14.245 2°55.295 318.5 5.2 314.8 -999
2002-10-29 09:33:56 51°14.251 2°55.285 317.8 5.1 313.7 -999
2002-10-29 09:34:02 51°14.256 2°55.275 317.7 5.1 313.6 9.8
2002-10-29 09:34:06 51°14.26 2°55.269 317.3 5.1 313 8.3
2002-10-29 09:34:10 51°14.264 2°55.262 317 5.1 312.9 9.6
2002-10-29 09:34:16 51°14.27 2°55.252 316.5 5.1 312.1 9.8
2002-10-29 09:34:21 51°14.274 2°55.244 315.8 5 311.5 9.9
2002-10-29 09:34:26 51°14.279 2°55.236 315 5 310.8 -999
2002-10-29 09:34:31 51°14.283 2°55.227 314.3 4.9 309.9 9.8
2002-10-29 09:34:36 51°14.287 2°55.219 313.8 4.9 309.1 9.9
2002-10-29 09:34:42 51°14.293 2°55.209 313.2 4.9 308.6 -999
2002-10-29 09:34:46 51°14.296 2°55.202 312.7 5 307.6 -999
2002-10-29 09:34:50 51°14.299 2°55.194 312 5 307.2 9.9
2002-10-29 09:34:56 51°14.304 2°55.183 311.5 5.1 306.3 9.9
2002-10-29 09:35:01 51°14.309 2°55.173 311.7 5.4 306.4 9.2
2002-10-29 09:35:06 51°14.314 2°55.163 311.8 5.6 306.4 10
2002-10-29 09:35:10 51°14.318 2°55.155 312.5 5.9 307 9.9
2002-10-29 09:35:16 51°14.324 2°55.141 312.8 6.3 307.5 9.9
2002-10-29 09:35:21 51°14.33 2°55.13 313 6.5 308 7.8
2002-10-29 09:35:26 51°14.336 2°55.118 313 6.8 308.1 9.6
2002-10-29 09:35:30 51°14.341 2°55.107 314.3 7.3 308.9 9.7
2002-10-29 09:35:36 51°14.35 2°55.092 316 7.7 309.9 9.9
2002-10-29 09:35:41 51°14.358 2°55.078 318.5 8.2 312 10.4
2002-10-29 09:35:46 51°14.367 2°55.064 321.7 8.7 314.2 10.2
2002-10-29 09:35:50 51°14.376 2°55.053 325.2 9.4 317.8 10
2002-10-29 09:35:54 51°14.385 2°55.041 328.3 10 320.3 10
2002-10-29 09:36:01 51°14.401 2°55.021 330.3 10.7 322.5 9.8
2002-10-29 09:36:06 51°14.414 2°55.007 332.8 11.2 324.1 9.7
2002-10-29 09:36:10 51°14.425 2°54.996 335.5 11.6 326 9.4
2002-10-29 09:36:16 51°14.442 2°54.978 336.5 12 327.2 9.5
2002-10-29 09:36:21 51°14.457 2°54.963 336.7 12.3 327.3 9.5
2002-10-29 09:36:26 51°14.471 2°54.948 336.3 12.4 326.9 9.3
2002-10-29 09:36:31 51°14.486 2°54.933 336.2 12.6 326.9 9.4
2002-10-29 09:36:36 51°14.501 2°54.918 337 12.7 327.2 9.2
2002-10-29 09:36:41 51°14.516 2°54.904 338.8 12.8 328.9 9.2
2002-10-29 09:36:46 51°14.532 2°54.891 341.2 12.8 331.3 9.1
2002-10-29 09:36:50 51°14.545 2°54.882 346.3 12.8 336.6 9.1
2002-10-29 09:36:54 51°14.559 2°54.876 351.2 12.7 340.9 9
2002-10-29 09:37:01 51°14.583 2°54.866 353.8 12.7 344.3 9
2002-10-29 09:37:06 51°14.6 2°54.859 355 12.8 346.2 8.9
2002-10-29 09:37:10 51°14.614 2°54.854 355.2 12.9 346.9 9
2002-10-29 09:37:16 51°14.635 2°54.846 355.2 12.9 346.7 8.9
2002-10-29 09:37:21 51°14.652 2°54.84 355 12.8 346.9 8.9
2002-10-29 09:37:26 51°14.67 2°54.833 354.3 12.9 346.3 8.9
2002-10-29 09:37:30 51°14.684 2°54.827 354.2 13 346.1 8.9
2002-10-29 09:37:36 51°14.705 2°54.819 354.2 13 346 8.9
2002-10-29 09:37:41 51°14.722 2°54.812 354 13 346.3 8.8
2002-10-29 09:37:45 51°14.736 2°54.806 354 13.1 345.9 8.8
2002-10-29 09:37:50 51°14.754 2°54.8 354 13.1 346 8.7
2002-10-29 09:37:56 51°14.775 2°54.791 354 13 345.8 8.7
2002-10-29 09:38:01 51°14.792 2°54.784 354.3 13.1 345.9 8.7
2002-10-29 09:38:06 51°14.81 2°54.777 354.5 13.1 346 8.7
2002-10-29 09:38:11 51°14.828 2°54.77 354.5 13.1 346.3 8.8
2002-10-29 09:38:16 51°14.846 2°54.764 354.5 13.1 346.5 8.7
2002-10-29 09:38:21 51°14.864 2°54.757 354.7 13.2 346.7 8.7
2002-10-29 09:38:26 51°14.881 2°54.75 354.7 13.2 346.6 8.7
2002-10-29 09:38:31 51°14.899 2°54.743 354.3 13.1 346.3 8.6
2002-10-29 09:38:36 51°14.917 2°54.736 354.2 13.1 346.1 8.6
2002-10-29 09:38:41 51°14.934 2°54.729 353.8 13.2 345.8 8.5
2002-10-29 09:38:46 51°14.952 2°54.721 353.7 13.2 345.5 8.5
2002-10-29 09:38:51 51°14.97 2°54.714 353.7 13.1 345.5 8.3
2002-10-29 09:38:56 51°14.987 2°54.707 353.8 13.1 345.5 8.2
2002-10-29 09:39:01 51°15.005 2°54.7 354.2 13.1 345.7 8.1
2002-10-29 09:39:06 51°15.023 2°54.693 354.7 13.1 346.2 8
2002-10-29 09:39:10 51°15.037 2°54.688 355 13 346.5 7.8
2002-10-29 09:39:16 51°15.058 2°54.68 355.3 13.1 347 7.7
2002-10-29 09:39:21 51°15.075 2°54.674 355.7 13 347.1 7.7
2002-10-29 09:39:26 51°15.093 2°54.667 355.7 12.9 347.5 7.7
2002-10-29 09:39:30 51°15.107 2°54.663 356 12.8 347.8 7.6
2002-10-29 09:39:36 51°15.128 2°54.655 356.3 12.9 347.8 7.6
2002-10-29 09:39:41 51°15.145 2°54.649 356.2 12.9 347.7 7.7
2002-10-29 09:39:46 51°15.163 2°54.643 355.7 12.9 347.4 7.7
2002-10-29 09:39:51 51°15.18 2°54.636 355.3 13 347 7.8
2002-10-29 09:39:56 51°15.198 2°54.63 355.2 13 346.8 7.9
2002-10-29 09:40:01 51°15.215 2°54.624 355.2 13 346.8 7.9
2002-10-29 09:40:06 51°15.233 2°54.617 355 13 346.7 7.9
2002-10-29 09:40:11 51°15.251 2°54.61 354.3 13.1 346.3 7.9
2002-10-29 09:40:16 51°15.269 2°54.602 353.7 13.2 345.6 8.1
2002-10-29 09:40:21 51°15.286 2°54.595 353.2 13.3 345.4 8.2
2002-10-29 09:40:26 51°15.304 2°54.587 353.5 13.3 345.2 8.3
2002-10-29 09:40:31 51°15.322 2°54.58 353.7 13.3 345.6 8.3
2002-10-29 09:40:36 51°15.34 2°54.573 354.3 13.3 346.2 8.2
2002-10-29 09:40:41 51°15.358 2°54.566 354.5 13.3 346.3 8.3
2002-10-29 09:40:46 51°15.376 2°54.56 354.8 13.3 346.6 8.4
2002-10-29 09:40:51 51°15.394 2°54.553 355.2 13.4 346.8 8.4
2002-10-29 09:40:56 51°15.412 2°54.546 355 13.4 346.6 8.5
2002-10-29 09:41:01 51°15.43 2°54.539 354.5 13.4 346.5 8.6
2002-10-29 09:41:06 51°15.448 2°54.532 354.3 13.4 346.1 8.6
2002-10-29 09:41:11 51°15.466 2°54.524 354.3 13.4 345.5 8.6
2002-10-29 09:41:16 51°15.484 2°54.517 354.5 13.4 345.8 8.8
2002-10-29 09:41:21 51°15.502 2°54.509 354.3 13.4 345.6 8.7
2002-10-29 09:41:26 51°15.52 2°54.502 354.5 13.5 345.7 8.9
2002-10-29 09:41:31 51°15.539 2°54.495 354.3 13.5 345.5 9
2002-10-29 09:41:36 51°15.557 2°54.487 354.5 13.4 345.6 9
2002-10-29 09:41:41 51°15.574 2°54.48 354.3 13.4 345.7 9
2002-10-29 09:41:46 51°15.593 2°54.473 354.5 13.5 346 9.1
2002-10-29 09:41:51 51°15.611 2°54.465 354.7 13.5 345.9 9.2
2002-10-29 09:41:56 51°15.629 2°54.459 354.7 13.5 346.2 9.2
2002-10-29 09:42:01 51°15.647 2°54.451 354.7 13.5 346.1 9.3
2002-10-29 09:42:06 51°15.665 2°54.444 355 13.5 346.3 9.3
2002-10-29 09:42:11 51°15.683 2°54.437 354.5 13.5 346.1 9.4
2002-10-29 09:42:16 51°15.702 2°54.43 354.3 13.5 346.1 9.5
2002-10-29 09:42:21 51°15.72 2°54.423 354.5 13.5 345.8 9.6
2002-10-29 09:42:26 51°15.738 2°54.415 354.2 13.5 345.8 9.7
2002-10-29 09:42:31 51°15.756 2°54.408 354 13.5 345.5 9.8
2002-10-29 09:42:36 51°15.774 2°54.4 353.8 13.5 345.5 9.8
2002-10-29 09:42:41 51°15.792 2°54.392 354 13.6 345.4 9.9
2002-10-29 09:42:46 51°15.811 2°54.385 354.3 13.7 345.5 10
2002-10-29 09:42:51 51°15.829 2°54.377 354.7 13.8 345.8 10
2002-10-29 09:42:56 51°15.848 2°54.37 354.8 13.7 346 10.1
2002-10-29 09:43:01 51°15.866 2°54.363 354.7 13.7 346 10.1
2002-10-29 09:43:06 51°15.885 2°54.356 354.5 13.7 346 10.2
2002-10-29 09:43:11 51°15.903 2°54.348 354.3 13.8 345.8 10.3
2002-10-29 09:43:16 51°15.922 2°54.341 354.2 13.9 345.8 10.4
2002-10-29 09:43:21 51°15.941 2°54.333 353.8 13.9 345.4 10.4
2002-10-29 09:43:26 51°15.959 2°54.325 354.2 13.9 345.6 10.5
2002-10-29 09:43:31 51°15.978 2°54.318 354.3 13.9 345.8 10.5
2002-10-29 09:43:36 51°15.996 2°54.31 354.3 13.8 345.8 10.6
2002-10-29 09:43:41 51°16.015 2°54.303 354.7 13.8 345.9 10.6
2002-10-29 09:43:46 51°16.034 2°54.296 354.2 13.9 346.4 10.7
2002-10-29 09:43:51 51°16.052 2°54.29 356.3 13.9 347.3 10.7
2002-10-29 09:43:56 51°16.071 2°54.286 0.3 13.4 351.1 10.7
2002-10-29 09:44:01 51°16.088 2°54.285 4.3 12.9 354.9 10.7
2002-10-29 09:44:06 51°16.104 2°54.285 9.3 12.4 358.3 10.8
2002-10-29 09:44:11 51°16.12 2°54.288 14.7 11.6 4 10.9
2002-10-29 09:44:16 51°16.134 2°54.293 19 10.8 9.5 11
2002-10-29 09:44:21 51°16.148 2°54.299 22.7 10.3 13 11.1
2002-10-29 09:44:26 51°16.161 2°54.305 26 10 15.5 11.2
2002-10-29 09:44:31 51°16.173 2°54.312 27.7 9.5 18.5 11.2
2002-10-29 09:44:36 51°16.185 2°54.318 28.5 9.1 19.9 11.2
2002-10-29 09:44:41 51°16.196 2°54.325 29.7 8.8 20.7 11.3
2002-10-29 09:44:46 51°16.206 2°54.332 30.7 8.4 21.3 11.2
2002-10-29 09:44:51 51°16.216 2°54.339 31.5 7.9 22.4 11.3
2002-10-29 09:44:56 51°16.225 2°54.345 32.2 7.5 22.8 11.2
2002-10-29 09:45:01 51°16.234 2°54.351 32.8 7.2 23.5 11.3
2002-10-29 09:45:06 51°16.243 2°54.357 33 7 23.6 11.3
2002-10-29 09:45:11 51°16.251 2°54.363 33.7 6.7 24 11.3
2002-10-29 09:45:16 51°16.259 2°54.369 34 6.4 24.6 11.3
2002-10-29 09:45:21 51°16.266 2°54.375 34.7 6.2 24.9 11.3
2002-10-29 09:45:26 51°16.274 2°54.38 35.2 6 25.3 11.3
2002-10-29 09:45:30 51°16.279 2°54.384 35.5 5.7 25.8 11.3
2002-10-29 09:45:34 51°16.285 2°54.389 36.2 5.5 25.8 11.3
2002-10-29 09:45:41 51°16.294 2°54.396 37 5.4 26 11.3
2002-10-29 09:45:46 51°16.3 2°54.401 37.7 5.2 27 11.3
2002-10-29 09:45:50 51°16.305 2°54.405 38 5 25.9 11.3
2002-10-29 09:45:56 51°16.313 2°54.411 36.7 4.9 25.6 11.3
2002-10-29 09:46:01 51°16.32 2°54.414 30.2 5.2 22.1 11.3
2002-10-29 09:46:05 51°16.326 2°54.416 20.2 5.5 14.2 11.3
2002-10-29 09:46:10 51°16.334 2°54.416 9.7 6 2.1 11.2
2002-10-29 09:46:16 51°16.345 2°54.413 358.7 6.2 353.7 11.3
2002-10-29 09:46:21 51°16.353 2°54.407 348.3 6.5 340.9 11.3
2002-10-29 09:46:26 51°16.361 2°54.399 337.8 6.6 334.6 11.3
2002-10-29 09:46:30 51°16.366 2°54.391 327.2 6.8 322.1 11.3
2002-10-29 09:46:36 51°16.373 2°54.376 316.7 6.9 310.4 11.3
2002-10-29 09:46:41 51°16.378 2°54.363 306.3 6.8 303.1 11.3
2002-10-29 09:46:46 51°16.381 2°54.349 297 6.7 296 11.4
2002-10-29 09:46:51 51°16.382 2°54.335 287.2 6.6 285.6 11.4
2002-10-29 09:46:56 51°16.382 2°54.321 278 6.5 275.1 11.4
2002-10-29 09:47:01 51°16.381 2°54.307 268 6.4 268 11.4
2002-10-29 09:47:06 51°16.379 2°54.294 258.8 6.3 260.6 11.4
2002-10-29 09:47:11 51°16.375 2°54.281 249.8 6.3 250.3 11.5
2002-10-29 09:47:16 51°16.37 2°54.27 240.3 6.3 239 11.5
2002-10-29 09:47:21 51°16.364 2°54.259 229.7 6.3 231.8 11.5
2002-10-29 09:47:26 51°16.357 2°54.251 219.5 6.4 223.6 11.5
2002-10-29 09:47:31 51°16.349 2°54.244 209.5 6.5 209.8 11.5
2002-10-29 09:47:36 51°16.34 2°54.241 199.5 6.5 199 11.5
2002-10-29 09:47:41 51°16.331 2°54.239 189 6.4 191.2 11.5
2002-10-29 09:47:46 51°16.322 2°54.24 178.8 6.3 182.5 11.5
2002-10-29 09:47:51 51°16.314 2°54.243 170.8 6 171.3 11.5
2002-10-29 09:47:56 51°16.307 2°54.246 165.2 5.6 166.3 11.5
2002-10-29 09:48:01 51°16.301 2°54.25 160.5 5.2 162.5 11.5
2002-10-29 09:48:06 51°16.295 2°54.254 156.7 4.9 159.3 11.5
2002-10-29 09:48:11 51°16.289 2°54.258 153.7 4.6 155.1 11.5
2002-10-29 09:48:16 51°16.284 2°54.262 151.7 4.2 153.5 11.5
2002-10-29 09:48:21 51°16.28 2°54.267 149.7 4 150.6 11.5
2002-10-29 09:48:26 51°16.275 2°54.271 147.5 3.9 150.4 11.4
2002-10-29 09:48:31 51°16.271 2°54.275 146.2 3.6 147.6 11.3
2002-10-29 09:48:36 51°16.268 2°54.279 144.3 3.3 146.7 11.4
2002-10-29 09:48:41 51°16.265 2°54.282 142.7 2.9 145.7 11.4
2002-10-29 09:48:46 51°16.262 2°54.285 140.5 2.5 145.5 11.4
2002-10-29 09:48:51 51°16.261 2°54.287 138.3 1.8 145.3 11.4
2002-10-29 09:48:56 51°16.26 2°54.288 135.8 1 150.6 11.4
2002-10-29 09:49:01 51°16.26 2°54.287 134.7 0.5 167.7 11.3
2002-10-29 09:49:06 51°16.26 2°54.286 133.3 0.4 244.7 11.3
2002-10-29 09:49:11 51°16.26 2°54.285 132.5 0.7 283.7 11.3
2002-10-29 09:49:16 51°16.26 2°54.283 131.5 0.6 292.4 11.4
2002-10-29 09:49:21 51°16.26 2°54.282 130 0.6 289.9 11.4
2002-10-29 09:49:26 51°16.261 2°54.281 128.2 0.6 290.7 11.4
2002-10-29 09:49:31 51°16.261 2°54.279 126.2 0.6 285.9 -999
2002-10-29 09:49:37 51°16.262 2°54.278 124 0.6 300.5 -999
2002-10-29 09:49:42 51°16.262 2°54.277 121.5 0.6 288.9 -999
2002-10-29 09:49:47 51°16.263 2°54.276 119.8 0.6 298.2 -999
2002-10-29 09:49:52 51°16.263 2°54.274 118 0.6 295.9 -999
2002-10-29 09:49:57 51°16.263 2°54.273 116.2 0.6 299.6 -999
2002-10-29 09:50:02 51°16.263 2°54.272 114.7 0.6 290.9 -999
2002-10-29 09:50:07 51°16.264 2°54.271 113 0.6 293.7 -999
2002-10-29 09:50:12 51°16.264 2°54.27 111.8 0.6 290.4 11.1
2002-10-29 09:50:16 51°16.264 2°54.269 110.5 0.6 294.9 -999
2002-10-29 09:50:22 51°16.265 2°54.267 109 0.6 295.9 -999
2002-10-29 09:50:27 51°16.265 2°54.266 107.3 0.6 294.6 -999
2002-10-29 09:50:32 51°16.266 2°54.265 106.3 0.6 295.7 -999
2002-10-29 09:50:37 51°16.266 2°54.264 104.8 0.6 295.6 -999
2002-10-29 09:50:42 51°16.266 2°54.263 103.8 0.6 297.6 11.4
2002-10-29 09:50:46 51°16.266 2°54.262 102.2 0.6 293.8 11.4
2002-10-29 09:50:51 51°16.267 2°54.261 101.8 0.6 292.8 11.2
2002-10-29 09:50:56 51°16.267 2°54.259 100.5 0.6 301.5 11.4
2002-10-29 09:51:01 51°16.267 2°54.258 99 0.6 295 11.4
2002-10-29 09:51:05 51°16.268 2°54.257 98.2 0.6 301.5 11.4
2002-10-29 09:51:10 51°16.268 2°54.256 96.8 0.6 294.5 11.4
2002-10-29 09:51:16 51°16.269 2°54.255 95.8 0.6 297.2 11.4
2002-10-29 09:51:21 51°16.269 2°54.254 94.7 0.6 299.4 11.4
2002-10-29 09:51:25 51°16.27 2°54.253 93.5 0.6 298.6 11.4
2002-10-29 09:51:31 51°16.27 2°54.252 92.5 0.6 305 11.4
2002-10-29 09:51:36 51°16.271 2°54.251 91 0.6 306.9 11.4
2002-10-29 09:51:41 51°16.271 2°54.249 90.2 0.5 297.4 11.4
2002-10-29 09:51:46 51°16.272 2°54.248 89 0.6 304.3 11.4
2002-10-29 09:51:50 51°16.272 2°54.248 88 0.5 299 11.4
2002-10-29 09:51:56 51°16.272 2°54.246 86.8 0.6 308 11.4
2002-10-29 09:52:01 51°16.272 2°54.245 85.8 0.5 299.6 11.4
2002-10-29 09:52:06 51°16.273 2°54.244 84.7 0.6 307 11.4
2002-10-29 09:52:10 51°16.273 2°54.244 83.7 0.4 301.7 11.4
2002-10-29 09:52:16 51°16.274 2°54.242 82.8 0.5 305.9 11.4
2002-10-29 09:52:21 51°16.274 2°54.242 81.5 0.5 303.8 11.4
2002-10-29 09:52:26 51°16.275 2°54.241 80.7 0.6 310.1 11.4
2002-10-29 09:52:31 51°16.275 2°54.239 78.8 0.6 311 11.4
2002-10-29 09:52:36 51°16.275 2°54.239 78 0.5 303.9 11.4
2002-10-29 09:52:41 51°16.276 2°54.237 76.3 0.6 315.4 11.4
2002-10-29 09:52:46 51°16.276 2°54.237 75.2 0.4 309.1 11.4
2002-10-29 09:52:51 51°16.278 2°54.236 73.8 0.5 325.9 11.4
2002-10-29 09:52:56 51°16.278 2°54.236 72.7 0.5 332.1 11.4
2002-10-29 09:53:01 51°16.278 2°54.236 71.5 0.5 338.2 11.4
2002-10-29 09:53:06 51°16.279 2°54.235 70.2 0.5 342.9 11.4
2002-10-29 09:53:11 51°16.28 2°54.235 69.3 0.5 350.7 11.4
2002-10-29 09:53:16 51°16.281 2°54.235 68.3 0.6 355.8 11.4
2002-10-29 09:53:21 51°16.282 2°54.235 67.7 0.6 3.7 11.4
2002-10-29 09:53:26 51°16.282 2°54.235 67.3 0.6 6.4 11.4
2002-10-29 09:53:31 51°16.284 2°54.236 67.2 0.7 12.1 11.4
2002-10-29 09:53:36 51°16.285 2°54.236 67.5 0.7 15.5 11.4
2002-10-29 09:53:41 51°16.286 2°54.237 67.5 0.7 20.2 11.4
2002-10-29 09:53:46 51°16.287 2°54.238 68.5 0.8 19.5 11.4
2002-10-29 09:53:51 51°16.287 2°54.239 69.2 0.8 28.1 11.4
2002-10-29 09:53:56 51°16.289 2°54.239 70.3 0.8 30.9 11.4
2002-10-29 09:54:01 51°16.29 2°54.24 71.5 0.8 29.4 11.4
2002-10-29 09:54:06 51°16.29 2°54.241 72.7 0.9 30.9 11.4
2002-10-29 09:54:11 51°16.292 2°54.242 74 0.9 30.7 11.4
2002-10-29 09:54:16 51°16.293 2°54.244 75.2 0.9 36.5 11.4
2002-10-29 09:54:21 51°16.294 2°54.245 76.5 0.9 36.9 11.4
2002-10-29 09:54:26 51°16.295 2°54.247 77.8 0.9 39.3 11.4
2002-10-29 09:54:31 51°16.296 2°54.248 78.7 1 39.6 11.4
2002-10-29 09:54:36 51°16.297 2°54.25 80 1 44.6 11.4
2002-10-29 09:54:41 51°16.298 2°54.251 80.8 1 44.2 11.4
2002-10-29 09:54:46 51°16.299 2°54.253 82.3 1 46.1 11.4
2002-10-29 09:54:51 51°16.3 2°54.254 82.8 1 47 11.4
2002-10-29 09:54:56 51°16.3 2°54.256 84 1 51.5 11.4
2002-10-29 09:55:01 51°16.301 2°54.258 85 1 49.4 11.4
2002-10-29 09:55:06 51°16.302 2°54.26 86 1 55.7 11.4
2002-10-29 09:55:11 51°16.303 2°54.261 87 1 53.3 11.4
2002-10-29 09:55:16 51°16.303 2°54.263 88.2 1 56.9 11.4
2002-10-29 09:55:21 51°16.304 2°54.265 89.3 1 61.3 11.4
2002-10-29 09:55:26 51°16.305 2°54.267 90.2 1 61 11.4
2002-10-29 09:55:31 51°16.305 2°54.269 91.7 1 65.1 11.3
2002-10-29 09:55:36 51°16.306 2°54.271 93 1 64.9 11.4
2002-10-29 09:55:41 51°16.306 2°54.273 94.7 1 68.4 11.4
2002-10-29 09:55:46 51°16.307 2°54.275 96 1 66.7 11.4
2002-10-29 09:55:51 51°16.307 2°54.277 97 1 71.5 11.4
2002-10-29 09:55:56 51°16.307 2°54.279 98.8 0.9 75.4 11.4
2002-10-29 09:56:01 51°16.308 2°54.281 100 0.9 74.3 11.4
2002-10-29 09:56:06 51°16.308 2°54.283 101.5 0.9 76.6 11.4
2002-10-29 09:56:11 51°16.309 2°54.285 102.5 0.9 73.9 11.4
2002-10-29 09:56:16 51°16.308 2°54.287 103.8 0.9 82.5 11.4
2002-10-29 09:56:21 51°16.309 2°54.289 105 0.9 79.5 11.4
2002-10-29 09:56:25 51°16.309 2°54.291 106.2 0.9 85.7 11.4
2002-10-29 09:56:30 51°16.309 2°54.293 107.2 0.9 83.5 11.4
2002-10-29 09:56:36 51°16.309 2°54.295 108.7 0.9 86.5 11.4
2002-10-29 09:56:41 51°16.309 2°54.297 109.5 0.9 86.6 11.4
2002-10-29 09:56:45 51°16.309 2°54.298 111 0.8 92.5 11.3
2002-10-29 09:56:51 51°16.309 2°54.301 112.2 0.9 88.7 11.3
2002-10-29 09:56:56 51°16.309 2°54.302 113.3 0.8 99.8 11.3
2002-10-29 09:57:01 51°16.309 2°54.304 114.7 0.9 94.2 11.3
2002-10-29 09:57:05 51°16.308 2°54.306 115.2 0.8 100.5 11.2
2002-10-29 09:57:10 51°16.308 2°54.308 116.3 0.8 95.8 11.3
2002-10-29 09:57:16 51°16.308 2°54.31 117.7 0.8 98.6 11.3
2002-10-29 09:57:21 51°16.308 2°54.311 118.5 0.8 98.3 11.3
2002-10-29 09:57:26 51°16.308 2°54.313 119.7 0.8 106.8 11.3
2002-10-29 09:57:31 51°16.307 2°54.315 120.7 0.8 103.7 11.3
2002-10-29 09:57:36 51°16.307 2°54.317 121.3 0.8 109.2 11.3
2002-10-29 09:57:41 51°16.306 2°54.318 122.8 0.8 114.7 11.3
2002-10-29 09:57:46 51°16.306 2°54.32 124 0.8 114.4 11.3
2002-10-29 09:57:50 51°16.306 2°54.321 125 0.8 117.6 11.3
2002-10-29 09:57:56 51°16.305 2°54.323 125.8 0.8 115.2 11.3
2002-10-29 09:58:01 51°16.304 2°54.324 127 0.7 122.5 11.3
2002-10-29 09:58:06 51°16.304 2°54.325 128.3 0.7 119.1 11.3
2002-10-29 09:58:10 51°16.303 2°54.326 129.5 0.7 124 11.3
2002-10-29 09:58:16 51°16.303 2°54.328 130.8 0.7 126.2 11.3
2002-10-29 09:58:21 51°16.302 2°54.329 131.5 0.7 125.9 11.3
2002-10-29 09:58:26 51°16.301 2°54.33 132.5 0.7 128.3 11.3
2002-10-29 09:58:31 51°16.301 2°54.332 133.3 0.7 129.3 11.3
2002-10-29 09:58:36 51°16.3 2°54.333 134.7 0.7 132.8 11.3
2002-10-29 09:58:41 51°16.299 2°54.334 135.7 0.7 133.3 11.3
2002-10-29 09:58:46 51°16.299 2°54.335 136.5 0.7 134.1 11.3
2002-10-29 09:58:50 51°16.298 2°54.336 137.5 0.7 137.1 11.3
2002-10-29 09:58:56 51°16.297 2°54.337 138.7 0.8 137.2 11.3
2002-10-29 09:59:01 51°16.296 2°54.338 139.5 0.8 138.4 11.3
2002-10-29 09:59:06 51°16.296 2°54.339 140.5 0.7 141.1 11.3
2002-10-29 09:59:10 51°16.295 2°54.34 141.8 0.8 145.3 11.3
2002-10-29 09:59:16 51°16.294 2°54.341 143.3 0.8 147 11.3
2002-10-29 09:59:21 51°16.293 2°54.342 144.5 0.8 149.6 11.3
2002-10-29 09:59:26 51°16.292 2°54.343 146.3 0.8 152.3 11.3
2002-10-29 09:59:31 51°16.291 2°54.344 147.7 0.8 153.9 11.3
2002-10-29 09:59:36 51°16.29 2°54.344 149.7 0.8 162 11.3
2002-10-29 09:59:41 51°16.289 2°54.345 151.5 0.8 160.1 11.3
2002-10-29 09:59:46 51°16.287 2°54.345 153.2 0.9 166.2 11.3
2002-10-29 09:59:51 51°16.286 2°54.346 155.3 0.9 166.1 11.2
2002-10-29 09:59:56 51°16.284 2°54.346 157.3 0.9 172.6 11.1
2002-10-29 10:00:01 51°16.283 2°54.346 159.7 0.9 170.7 11.2
2002-10-29 10:00:06 51°16.282 2°54.346 161.5 1 177.3 11.2
2002-10-29 10:00:10 51°16.281 2°54.346 164.2 1 179 11.2
2002-10-29 10:00:16 51°16.279 2°54.346 166 1 183.1 11.2
2002-10-29 10:00:21 51°16.278 2°54.345 168.2 0.9 188.1 11.2
2002-10-29 10:00:26 51°16.277 2°54.345 169.7 0.9 191.4 11.2
2002-10-29 10:00:30 51°16.276 2°54.345 171.7 0.9 196.4 11.2
2002-10-29 10:00:36 51°16.275 2°54.344 173.3 0.9 193.9 11.2
2002-10-29 10:00:41 51°16.273 2°54.343 174.8 0.9 203.4 11.2
2002-10-29 10:00:46 51°16.272 2°54.343 176.5 0.8 200.3 11.2
2002-10-29 10:00:51 51°16.271 2°54.341 178.2 0.9 212 11.2
2002-10-29 10:00:56 51°16.27 2°54.341 179.8 0.9 209.9 11.2
2002-10-29 10:01:01 51°16.269 2°54.339 181.3 0.9 218.9 11.2
2002-10-29 10:01:06 51°16.268 2°54.338 183.5 0.8 217.4 11.2
2002-10-29 10:01:11 51°16.268 2°54.336 185.2 0.9 227.6 11.2
2002-10-29 10:01:16 51°16.267 2°54.335 187.3 0.8 222.7 11.2
2002-10-29 10:01:21 51°16.266 2°54.334 188.7 0.9 229.8 11.2
2002-10-29 10:01:26 51°16.265 2°54.332 191.2 0.9 232.7 11.2
2002-10-29 10:01:30 51°16.265 2°54.331 193.2 0.9 234.8 11.2
2002-10-29 10:01:36 51°16.264 2°54.328 195.2 0.9 239.3 11.2
2002-10-29 10:01:41 51°16.263 2°54.327 197.2 0.9 238.9 11.2
2002-10-29 10:01:45 51°16.263 2°54.325 199.2 0.9 240.7 11.2
2002-10-29 10:01:51 51°16.262 2°54.323 201.5 0.9 243.8 11.2
2002-10-29 10:01:55 51°16.262 2°54.321 203.5 0.9 246.4 11.2
2002-10-29 10:02:01 51°16.262 2°54.319 205.5 0.9 249.4 11.2
2002-10-29 10:02:06 51°16.261 2°54.317 207.3 1 254.6 11.2
2002-10-29 10:02:11 51°16.261 2°54.315 209.8 0.9 255.7 11.1
2002-10-29 10:02:16 51°16.261 2°54.313 212 1 260.4 11.2
2002-10-29 10:02:21 51°16.26 2°54.311 214.2 0.9 258.6 11.2
2002-10-29 10:02:26 51°16.26 2°54.309 216.3 1 262 11.2
2002-10-29 10:02:30 51°16.26 2°54.307 218.3 1 261.8 11.2
2002-10-29 10:02:36 51°16.26 2°54.304 220.3 1 267.8 11.2
2002-10-29 10:02:41 51°16.26 2°54.302 222.3 1 265.1 11.2
2002-10-29 10:02:46 51°16.26 2°54.3 223.7 1 267.7 11.2
2002-10-29 10:02:51 51°16.26 2°54.298 225.7 1 266.8 11.2
2002-10-29 10:02:56 51°16.26 2°54.296 227.2 1 265.4 11.2
2002-10-29 10:03:01 51°16.26 2°54.293 228.8 1.1 267 11.2
2002-10-29 10:03:06 51°16.26 2°54.291 230.3 1 268.1 11.2
2002-10-29 10:03:10 51°16.26 2°54.289 231.2 1 266.6 11.2
2002-10-29 10:03:16 51°16.26 2°54.286 232.7 1.1 270.5 11.2
2002-10-29 10:03:21 51°16.26 2°54.284 234.2 1 268.4 11.2
2002-10-29 10:03:26 51°16.26 2°54.282 235.3 1.1 272.6 11.2
2002-10-29 10:03:30 51°16.26 2°54.28 236.5 1.1 271.2 11.3
2002-10-29 10:03:36 51°16.26 2°54.277 237.8 1.1 272.3 11.2
2002-10-29 10:03:41 51°16.26 2°54.275 238.5 1.1 271.6 11.2
2002-10-29 10:03:46 51°16.26 2°54.272 239.3 1.1 272.2 11.3
2002-10-29 10:03:51 51°16.26 2°54.27 240.8 1.1 275.6 11.2
2002-10-29 10:03:56 51°16.26 2°54.267 241.5 1 271.9 11.3
2002-10-29 10:04:01 51°16.26 2°54.265 242.3 1.1 276.7 11.2
2002-10-29 10:04:06 51°16.26 2°54.263 243.2 1.1 273.1 11.3
2002-10-29 10:04:10 51°16.261 2°54.26 244.3 1.1 278.3 11.3
2002-10-29 10:04:16 51°16.26 2°54.258 244.8 1.1 272.8 11.2
2002-10-29 10:04:21 51°16.261 2°54.255 245.7 1.2 278.3 11.3
2002-10-29 10:04:25 51°16.261 2°54.253 246.3 1.1 271.5 11.3
2002-10-29 10:04:30 51°16.261 2°54.251 247 1.1 275.5 11.3
2002-10-29 10:04:36 51°16.261 2°54.248 247.8 1.1 272.3 11.3
2002-10-29 10:04:41 51°16.262 2°54.245 248.2 1.1 276.9 11.3
2002-10-29 10:04:46 51°16.261 2°54.243 248.3 1.1 270.2 11.3
2002-10-29 10:04:51 51°16.262 2°54.241 248.7 1.1 275.2 11.3
2002-10-29 10:04:56 51°16.262 2°54.238 248.8 1.1 275.7 11.2
2002-10-29 10:05:01 51°16.262 2°54.236 249.2 1.1 276.1 11.2
2002-10-29 10:05:06 51°16.262 2°54.233 249.7 1.1 273.6 11.3
2002-10-29 10:05:10 51°16.262 2°54.231 249.3 1 272.6 11.2
2002-10-29 10:05:16 51°16.263 2°54.228 249.8 1.1 277.1 11.3
2002-10-29 10:05:21 51°16.262 2°54.226 249.8 1.1 274 11.3
2002-10-29 10:05:25 51°16.263 2°54.224 250.2 1.1 278.7 11.3
2002-10-29 10:05:30 51°16.263 2°54.222 250.2 1.1 273.1 11.3
2002-10-29 10:05:36 51°16.263 2°54.219 250.5 1.1 277 11.3
2002-10-29 10:05:41 51°16.263 2°54.217 250.3 1.1 275.2 11.3
2002-10-29 10:05:46 51°16.263 2°54.214 250.8 1.2 279.7 11.3
2002-10-29 10:05:51 51°16.263 2°54.212 250.7 1.1 275.6 11.3
2002-10-29 10:05:56 51°16.264 2°54.209 251.2 1.1 278.8 11.3
2002-10-29 10:06:01 51°16.264 2°54.207 251.2 1.1 277.7 11.3
2002-10-29 10:06:06 51°16.264 2°54.204 251.3 1.1 278.4 11.3
2002-10-29 10:06:10 51°16.264 2°54.202 251.7 1.1 276.9 11.3
2002-10-29 10:06:16 51°16.264 2°54.2 251.5 1.1 276.8 11.3
2002-10-29 10:06:21 51°16.265 2°54.197 251.8 1.1 278.1 11.3
2002-10-29 10:06:26 51°16.265 2°54.195 251.8 1.1 274.1 11.3
2002-10-29 10:06:30 51°16.265 2°54.193 251.8 1.1 275.3 11.3
2002-10-29 10:06:36 51°16.265 2°54.19 252 1.1 275.6 11.3
2002-10-29 10:06:41 51°16.265 2°54.188 252 1.1 273 11.3
2002-10-29 10:06:45 51°16.265 2°54.186 252 1.1 276.2 11.3
2002-10-29 10:06:50 51°16.265 2°54.183 252.2 1.1 273.4 11.3
2002-10-29 10:06:56 51°16.266 2°54.18 252 1.1 273.8 11.3
2002-10-29 10:07:01 51°16.266 2°54.178 252.2 1.1 277 11.3
2002-10-29 10:07:05 51°16.266 2°54.176 252 1.1 277.1 11.2
2002-10-29 10:07:10 51°16.266 2°54.174 252.2 1.1 278.5 11.3
2002-10-29 10:07:16 51°16.266 2°54.171 251.7 1.1 275.3 11.1
2002-10-29 10:07:21 51°16.266 2°54.169 251.7 1.1 276.7 11.3
2002-10-29 10:07:26 51°16.266 2°54.166 251.3 1.1 276.2 11.3
2002-10-29 10:07:30 51°16.267 2°54.164 251.2 1.1 277.5 11.3
2002-10-29 10:07:36 51°16.266 2°54.162 250.8 1.1 271.7 11.3
2002-10-29 10:07:41 51°16.267 2°54.159 250.7 1.1 275.1 11.3
2002-10-29 10:07:46 51°16.267 2°54.157 250.3 1.1 273.9 11.3
2002-10-29 10:07:50 51°16.267 2°54.155 250.2 1.1 273.5 11.3
2002-10-29 10:07:56 51°16.267 2°54.152 250.2 1.1 276.2 11.3
2002-10-29 10:08:01 51°16.267 2°54.15 249.7 1 274 11.3
2002-10-29 10:08:06 51°16.267 2°54.147 249.7 1.1 276.8 11.3
2002-10-29 10:08:10 51°16.267 2°54.145 249.5 1.1 274.4 11.3
2002-10-29 10:08:16 51°16.267 2°54.143 249 1.1 272.3 11.3
2002-10-29 10:08:21 51°16.268 2°54.14 249 1.1 275.4 11.3
2002-10-29 10:08:26 51°16.268 2°54.138 248.7 1.1 269.5 11.3
2002-10-29 10:08:31 51°16.268 2°54.134 248.5 1.2 271.2 11.3
2002-10-29 10:08:36 51°16.267 2°54.13 250.5 1.6 260.2 11.3
2002-10-29 10:08:41 51°16.267 2°54.124 254 2.2 263.5 11.3
2002-10-29 10:08:46 51°16.265 2°54.117 257.7 2.9 257.5 11.3
2002-10-29 10:08:51 51°16.265 2°54.107 263 3.9 263.2 11.3
2002-10-29 10:08:55 51°16.264 2°54.098 269.5 4.8 264.7 11.3
2002-10-29 10:09:01 51°16.265 2°54.081 277.3 5.8 270.8 11.3
2002-10-29 10:09:06 51°16.267 2°54.065 284 6.9 276.4 11.3
2002-10-29 10:09:10 51°16.269 2°54.051 289.7 7.9 281.6 11.2
2002-10-29 10:09:16 51°16.275 2°54.027 295.3 8.7 286 11.2
2002-10-29 10:09:21 51°16.28 2°54.007 301 9.6 291.7 11.2
2002-10-29 10:09:26 51°16.287 2°53.986 303.3 10.3 295.8 11.2
2002-10-29 10:09:30 51°16.293 2°53.969 304.2 10.9 297.3 11.3
2002-10-29 10:09:35 51°16.301 2°53.947 306.3 11.4 299 11.3
2002-10-29 10:09:41 51°16.311 2°53.92 309.7 11.7 301.5 11.3
2002-10-29 10:09:45 51°16.32 2°53.903 312.5 12 304.4 11.3
2002-10-29 10:09:50 51°16.33 2°53.881 315 12.2 306.6 11.3
2002-10-29 10:09:56 51°16.343 2°53.856 315.3 12.5 308.6 11.4
2002-10-29 10:10:01 51°16.354 2°53.834 315.8 12.6 309.1 11.4
2002-10-29 10:10:06 51°16.365 2°53.812 316.8 12.7 309.7 11.4
2002-10-29 10:10:10 51°16.375 2°53.795 318 12.7 310.5 11.4
2002-10-29 10:10:16 51°16.389 2°53.769 317 12.8 310.3 11.4
2002-10-29 10:10:21 51°16.4 2°53.747 315.7 12.9 309.6 11.5
2002-10-29 10:10:26 51°16.411 2°53.725 315.3 12.9 308.9 11.4
2002-10-29 10:10:31 51°16.422 2°53.703 316 12.9 309 11.4
2002-10-29 10:10:36 51°16.434 2°53.681 317.3 12.9 309.9 11.4
2002-10-29 10:10:41 51°16.446 2°53.66 317.5 12.9 310.7 11.5
2002-10-29 10:10:46 51°16.457 2°53.637 316.7 13 310.2 11.4
2002-10-29 10:10:51 51°16.469 2°53.615 315.5 13 309.3 11.4
2002-10-29 10:10:56 51°16.479 2°53.592 314.5 13 308.3 11.5
2002-10-29 10:11:01 51°16.491 2°53.57 314.3 13 307.9 11.5
2002-10-29 10:11:06 51°16.502 2°53.547 314.7 13 307.8 11.5
2002-10-29 10:11:11 51°16.513 2°53.525 315.7 13 308.3 11.4
2002-10-29 10:11:16 51°16.524 2°53.502 316.3 13 308.9 11.5
2002-10-29 10:11:21 51°16.536 2°53.48 316.3 13 309.1 11.4
2002-10-29 10:11:26 51°16.547 2°53.458 315.5 13 308.8 11.4
2002-10-29 10:11:30 51°16.556 2°53.44 315 13 308.4 11.4
2002-10-29 10:11:36 51°16.569 2°53.413 314.8 13 308.1 11.3
2002-10-29 10:11:41 51°16.581 2°53.39 315.8 13 308.4 11.3
2002-10-29 10:11:46 51°16.593 2°53.369 317.3 13 309.6 11.3
2002-10-29 10:11:51 51°16.604 2°53.347 317.7 13 310.5 11.1
2002-10-29 10:11:56 51°16.616 2°53.325 317.3 13 310.6 11.1
2002-10-29 10:12:01 51°16.627 2°53.303 317 12.9 309.8 11.1
2002-10-29 10:12:06 51°16.639 2°53.281 316.7 13 309.9 11
2002-10-29 10:12:11 51°16.65 2°53.259 316.7 13 309.6 11
2002-10-29 10:12:16 51°16.662 2°53.237 317.2 13 310.1 10.9
2002-10-29 10:12:21 51°16.673 2°53.215 316.7 13 310 10.9
2002-10-29 10:12:26 51°16.685 2°53.193 316.2 13 310 10.8
2002-10-29 10:12:31 51°16.696 2°53.171 316 13 309.5 10.7
2002-10-29 10:12:36 51°16.708 2°53.149 316.8 13 309.7 10.6
2002-10-29 10:12:41 51°16.72 2°53.127 317.5 13 310.4 10.5
2002-10-29 10:12:46 51°16.731 2°53.105 317 12.9 310.6 10.6
2002-10-29 10:12:50 51°16.74 2°53.088 317.5 12.9 310.7 10.5
2002-10-29 10:12:56 51°16.755 2°53.062 318.7 12.9 311.4 10.4
2002-10-29 10:13:01 51°16.767 2°53.041 318.8 12.9 311.7 10.2
2002-10-29 10:13:06 51°16.779 2°53.02 318.8 12.9 312 10
2002-10-29 10:13:11 51°16.791 2°52.998 318.7 12.9 312 9.8
2002-10-29 10:13:16 51°16.802 2°52.977 318 12.9 311.7 9.3
2002-10-29 10:13:21 51°16.814 2°52.956 318.2 12.8 311.5 8.8
2002-10-29 10:13:26 51°16.826 2°52.935 318.7 12.8 311.8 8.4
2002-10-29 10:13:30 51°16.835 2°52.919 318.3 12.7 311.7 8.2
2002-10-29 10:13:36 51°16.849 2°52.893 317.5 12.6 311.2 8.3
2002-10-29 10:13:41 51°16.86 2°52.872 317 12.6 310.6 8.4
2002-10-29 10:13:46 51°16.871 2°52.851 317.5 12.5 310.5 8.5
2002-10-29 10:13:49 51°16.878 2°52.838 318 12.6 311.1 8.4
2002-10-29 10:13:56 51°16.895 2°52.809 318.2 12.7 311.6 8.5
2002-10-29 10:14:01 51°16.907 2°52.788 319.2 12.8 312 8.5
2002-10-29 10:14:06 51°16.919 2°52.768 320.7 12.8 313.6 8.6
2002-10-29 10:14:10 51°16.929 2°52.752 321 12.9 314.3 8.7
2002-10-29 10:14:16 51°16.944 2°52.727 321.3 12.8 314.6 8.9
2002-10-29 10:14:21 51°16.956 2°52.707 320.5 12.9 314.2 8.9
2002-10-29 10:14:26 51°16.969 2°52.686 320 12.9 313.7 9.1
2002-10-29 10:14:30 51°16.979 2°52.669 319.3 12.9 313.3 9.4
2002-10-29 10:14:36 51°16.993 2°52.644 319.2 13 312.8 9.6
2002-10-29 10:14:41 51°17.006 2°52.623 318.8 13 312.7 9.4
2002-10-29 10:14:46 51°17.018 2°52.602 320 13 312.9 9.2
2002-10-29 10:14:50 51°17.028 2°52.586 322.8 13 314.8 9
2002-10-29 10:14:56 51°17.045 2°52.564 326 12.9 318.3 9
2002-10-29 10:15:01 51°17.058 2°52.546 327.3 12.8 320 8.9
2002-10-29 10:15:06 51°17.072 2°52.528 327.5 12.7 320.5 8.9
2002-10-29 10:15:10 51°17.083 2°52.514 327 12.7 320.6 8.9
2002-10-29 10:15:16 51°17.099 2°52.492 326.5 12.7 319.9 8.9
2002-10-29 10:15:21 51°17.112 2°52.474 326.7 12.8 319.9 9.1
2002-10-29 10:15:26 51°17.126 2°52.455 327 12.8 319.9 9.1
2002-10-29 10:15:30 51°17.137 2°52.44 326.7 12.9 319.7 9.1
2002-10-29 10:15:36 51°17.153 2°52.418 325.5 12.8 318.7 9.2
2002-10-29 10:15:41 51°17.166 2°52.398 324.3 12.9 317.8 9.3
2002-10-29 10:15:46 51°17.179 2°52.379 323.7 12.9 317 9.4
2002-10-29 10:15:51 51°17.192 2°52.36 323.8 12.9 317 9.4
2002-10-29 10:15:56 51°17.205 2°52.341 324.7 12.9 317.7 9.5
2002-10-29 10:16:01 51°17.219 2°52.322 326.2 12.9 318.9 9.7
2002-10-29 10:16:06 51°17.233 2°52.305 328 12.9 320.5 9.6
2002-10-29 10:16:11 51°17.247 2°52.288 330.2 12.9 322 9.6
2002-10-29 10:16:16 51°17.262 2°52.271 331.7 12.8 324.4 9.7
2002-10-29 10:16:21 51°17.277 2°52.255 331.8 12.8 324.8 9.7
2002-10-29 10:16:26 51°17.291 2°52.238 331.7 12.8 324.8 9.8
2002-10-29 10:16:31 51°17.306 2°52.222 331.8 12.8 324.7 9.8
2002-10-29 10:16:36 51°17.32 2°52.206 332 12.9 325 9.9
2002-10-29 10:16:41 51°17.335 2°52.189 331.8 12.9 324.9 9.8
2002-10-29 10:16:46 51°17.349 2°52.173 332.3 12.9 325 9.7
2002-10-29 10:16:51 51°17.364 2°52.157 331.8 12.9 325.2 9.8
2002-10-29 10:16:56 51°17.379 2°52.14 331.5 12.9 324.7 9.9
2002-10-29 10:17:01 51°17.393 2°52.124 332.2 12.8 325 9.8
2002-10-29 10:17:06 51°17.408 2°52.108 331.7 12.8 324.9 9.8
2002-10-29 10:17:10 51°17.419 2°52.094 330.3 12.8 323.7 9.8
2002-10-29 10:17:16 51°17.436 2°52.073 330 12.8 322.8 9.6
2002-10-29 10:17:21 51°17.45 2°52.057 330 12.7 323 9.7
2002-10-29 10:17:26 51°17.464 2°52.039 329 12.8 322.4 9.8
2002-10-29 10:17:30 51°17.475 2°52.025 327.8 12.8 321.2 9.8
2002-10-29 10:17:36 51°17.491 2°52.002 326.2 12.8 319.7 9.7
2002-10-29 10:17:41 51°17.504 2°51.983 325.2 12.8 318.5 9.8
2002-10-29 10:17:46 51°17.518 2°51.964 324.8 12.9 317.9 9.8
2002-10-29 10:17:50 51°17.528 2°51.949 324.8 12.9 317.8 9.7
2002-10-29 10:17:56 51°17.544 2°51.927 326 12.8 318.5 9.8
2002-10-29 10:18:01 51°17.559 2°51.909 328.3 12.8 320.5 9.7
2002-10-29 10:18:06 51°17.573 2°51.893 331.5 12.8 323.1 9.7
2002-10-29 10:18:11 51°17.588 2°51.878 334.8 12.7 326.9 9.7
2002-10-29 10:18:16 51°17.603 2°51.864 337.8 12.7 330 9.5
2002-10-29 10:18:21 51°17.619 2°51.851 339.7 12.7 331.7 9.6
2002-10-29 10:18:26 51°17.635 2°51.839 341.7 12.7 333.2 9.6
2002-10-29 10:18:31 51°17.651 2°51.828 343.5 12.7 335.3 9.6
2002-10-29 10:18:36 51°17.667 2°51.817 343.7 12.7 336.3 9.6
2002-10-29 10:18:41 51°17.683 2°51.805 343.3 12.7 335.8 9.6
2002-10-29 10:18:46 51°17.699 2°51.793 342 12.7 335.2 9.5
2002-10-29 10:18:51 51°17.715 2°51.78 340.2 12.7 333.4 9.4
2002-10-29 10:18:56 51°17.73 2°51.767 339.8 12.8 332.8 9.4
2002-10-29 10:19:01 51°17.746 2°51.755 340.7 12.7 332.7 9.5
2002-10-29 10:19:06 51°17.762 2°51.743 341 12.7 333.2 9.5
2002-10-29 10:19:11 51°17.777 2°51.73 341 12.7 333.3 9.5
2002-10-29 10:19:16 51°17.793 2°51.717 340.8 12.7 333.5 9.4
2002-10-29 10:19:21 51°17.809 2°51.705 340.5 12.7 333.2 9.5
2002-10-29 10:19:26 51°17.825 2°51.692 340.3 12.7 333.1 9.5
2002-10-29 10:19:30 51°17.837 2°51.682 340.7 12.8 333.2 9.5
2002-10-29 10:19:36 51°17.856 2°51.667 341.2 12.7 333.8 9.5
2002-10-29 10:19:41 51°17.872 2°51.655 342 12.7 334.3 9.5
2002-10-29 10:19:46 51°17.889 2°51.644 343.8 12.7 335.3 9.6
2002-10-29 10:19:51 51°17.905 2°51.633 343.8 12.7 336.3 9.7
2002-10-29 10:19:56 51°17.921 2°51.621 343.5 12.7 336.3 9.8
2002-10-29 10:20:01 51°17.937 2°51.61 343.8 12.8 336.2 5.7
2002-10-29 10:20:06 51°17.954 2°51.599 345 12.8 337.1 9.9
2002-10-29 10:20:10 51°17.967 2°51.591 346.5 12.8 338.3 9.9
2002-10-29 10:20:16 51°17.987 2°51.58 348.8 12.7 340.9 9.8
2002-10-29 10:20:21 51°18.003 2°51.572 349.8 12.7 342 10.1
2002-10-29 10:20:26 51°18.02 2°51.563 349.7 12.7 342.2 10.2
2002-10-29 10:20:31 51°18.037 2°51.554 348.3 12.7 341.5 10.2
2002-10-29 10:20:36 51°18.053 2°51.543 347 12.8 339.9 10.4
2002-10-29 10:20:41 51°18.07 2°51.534 346.8 12.8 339.5 10.4
2002-10-29 10:20:46 51°18.087 2°51.524 347.3 12.8 339.5 10.6
2002-10-29 10:20:50 51°18.1 2°51.516 348 12.8 340.1 10.7
2002-10-29 10:20:56 51°18.12 2°51.505 347.7 12.8 340.3 10.6
2002-10-29 10:21:01 51°18.137 2°51.495 347.5 12.8 340 10.8
2002-10-29 10:21:05 51°18.15 2°51.488 347.5 12.6 339.8 10.9
2002-10-29 10:21:10 51°18.165 2°51.479 347.2 12.2 339.5 11
2002-10-29 10:21:16 51°18.183 2°51.468 347.2 11.6 339.3 11.1
2002-10-29 10:21:21 51°18.197 2°51.46 347 11.1 339 11.2
2002-10-29 10:21:26 51°18.21 2°51.451 346.3 10.7 338.7 11.3
2002-10-29 10:21:30 51°18.22 2°51.444 345.8 10.1 338.1 11.5
2002-10-29 10:21:36 51°18.235 2°51.435 345 9.7 337.3 11.5
2002-10-29 10:21:41 51°18.247 2°51.426 343.8 9.3 335.9 11.5
2002-10-29 10:21:46 51°18.258 2°51.417 342.7 9.1 335.1 11.6
2002-10-29 10:21:51 51°18.268 2°51.409 341.3 8.8 333.4 11.7
2002-10-29 10:21:56 51°18.279 2°51.4 340.2 8.6 332.3 11.8
2002-10-29 10:22:01 51°18.289 2°51.391 339.3 8.3 331.4 11.8
2002-10-29 10:22:06 51°18.298 2°51.382 339.3 8.2 330.8 11.9
2002-10-29 10:22:10 51°18.306 2°51.375 339.3 8 330.8 12
2002-10-29 10:22:16 51°18.317 2°51.365 339.8 7.8 330.7 12
2002-10-29 10:22:21 51°18.327 2°51.357 340.2 7.7 331.2 12.1
2002-10-29 10:22:26 51°18.336 2°51.349 340.8 7.6 331.5 12.1
2002-10-29 10:22:31 51°18.345 2°51.342 342 7.5 332.4 12.3
2002-10-29 10:22:36 51°18.354 2°51.334 342.7 7.4 333.2 12.4
2002-10-29 10:22:41 51°18.363 2°51.327 343.7 7.3 333.8 12.4
2002-10-29 10:22:46 51°18.372 2°51.321 344.3 7.2 334.4 12.3
2002-10-29 10:22:50 51°18.379 2°51.316 345.2 7.1 335.2 12.4
2002-10-29 10:22:56 51°18.39 2°51.309 346 7 335.9 12.5
2002-10-29 10:23:01 51°18.399 2°51.303 347 7 337 12.6
2002-10-29 10:23:06 51°18.407 2°51.297 347.5 6.9 337.8 12.7
2002-10-29 10:23:11 51°18.416 2°51.292 348.3 6.8 338.6 12.7
2002-10-29 10:23:16 51°18.425 2°51.286 348.5 6.8 338.5 12.6
2002-10-29 10:23:21 51°18.434 2°51.281 348.7 6.8 338.8 12.8
2002-10-29 10:23:26 51°18.443 2°51.275 348.3 6.7 338.8 12.8
2002-10-29 10:23:31 51°18.451 2°51.27 348 6.7 338.6 12.8
2002-10-29 10:23:36 51°18.46 2°51.264 347.7 6.7 338.2 12.9
2002-10-29 10:23:41 51°18.468 2°51.259 346.8 6.7 338.1 12.9
2002-10-29 10:23:46 51°18.476 2°51.253 346.2 6.5 336.9 13
2002-10-29 10:23:50 51°18.483 2°51.249 346.8 6.1 336.4 13
2002-10-29 10:23:56 51°18.49 2°51.243 346.7 5.6 335.8 13.1
2002-10-29 10:24:01 51°18.496 2°51.238 342.5 4.9 332.6 13
2002-10-29 10:24:06 51°18.5 2°51.233 335.5 4.2 328.4 13.1
2002-10-29 10:24:11 51°18.502 2°51.228 328.8 3.3 319.2 13
2002-10-29 10:24:15 51°18.504 2°51.225 322.7 2.6 311.8 13.1
2002-10-29 10:24:21 51°18.505 2°51.222 317.3 2 304.8 13.1
2002-10-29 10:24:26 51°18.506 2°51.219 313.5 1.5 299.1 13.1
2002-10-29 10:24:30 51°18.506 2°51.219 309.8 0.8 285.5 13.2
2002-10-29 10:24:36 51°18.506 2°51.218 307.2 0.5 274.9 13.3
2002-10-29 10:24:41 51°18.506 2°51.217 304.3 0.4 270 13.3
2002-10-29 10:24:46 51°18.506 2°51.216 302.3 0.4 271.6 13.2
2002-10-29 10:24:51 51°18.506 2°51.215 300.5 0.5 281.7 13.2
2002-10-29 10:24:56 51°18.506 2°51.213 298.8 0.5 281.2 13.1
2002-10-29 10:25:01 51°18.506 2°51.212 297.5 0.6 284.2 13.2
2002-10-29 10:25:06 51°18.507 2°51.211 296.5 0.6 284 13.2
2002-10-29 10:25:10 51°18.507 2°51.21 295.3 0.6 285.7 13.3
2002-10-29 10:25:16 51°18.507 2°51.208 294 0.7 283.9 13.2
2002-10-29 10:25:21 51°18.507 2°51.207 292.5 0.7 289.7 13.2
2002-10-29 10:25:26 51°18.507 2°51.205 291.8 0.7 285.6 13.1
2002-10-29 10:25:30 51°18.508 2°51.204 290.7 0.7 286.1 13.1
2002-10-29 10:25:36 51°18.508 2°51.202 289.3 0.8 281.7 13.2
2002-10-29 10:25:41 51°18.509 2°51.2 287.8 0.8 288.4 13.1
2002-10-29 10:25:46 51°18.509 2°51.198 286.7 0.8 282.8 12.6
2002-10-29 10:25:50 51°18.509 2°51.197 284.8 0.9 289.7 -999
2002-10-29 10:25:56 51°18.509 2°51.194 283.2 0.9 281.4 13.2
2002-10-29 10:26:01 51°18.51 2°51.192 282.2 0.9 289.7 13.2
2002-10-29 10:26:06 51°18.51 2°51.191 280.2 0.9 283.9 13.2
2002-10-29 10:26:11 51°18.51 2°51.189 278.5 0.9 284.4 13.2
2002-10-29 10:26:16 51°18.511 2°51.187 277.2 1 288.3 13.1
2002-10-29 10:26:21 51°18.511 2°51.185 275.3 1 281.5 13.1
2002-10-29 10:26:26 51°18.512 2°51.182 273.8 1 285.5 13.2
2002-10-29 10:26:31 51°18.512 2°51.18 272.2 1 284.1 13.3
2002-10-29 10:26:36 51°18.512 2°51.178 270.3 1 286.7 13.2
2002-10-29 10:26:41 51°18.512 2°51.176 269.5 1 279.6 13
2002-10-29 10:26:46 51°18.513 2°51.174 267.7 1 284.5 13.1
2002-10-29 10:26:50 51°18.513 2°51.172 266.2 1 278.3 13.2
2002-10-29 10:26:56 51°18.513 2°51.169 264.8 1 281.8 13.3
2002-10-29 10:27:01 51°18.514 2°51.167 263.5 1.1 283.7 13
2002-10-29 10:27:06 51°18.514 2°51.165 262 1 279.7 12.8
2002-10-29 10:27:11 51°18.514 2°51.162 260.8 1.1 282.4 13
2002-10-29 10:27:16 51°18.514 2°51.16 259.3 1 278.9 13
2002-10-29 10:27:21 51°18.515 2°51.158 258.8 1.1 283.9 13
2002-10-29 10:27:26 51°18.515 2°51.156 257.7 1.1 278.9 13
2002-10-29 10:27:30 51°18.515 2°51.153 257 1.1 284.1 13
2002-10-29 10:27:36 51°18.516 2°51.151 257 1.1 282.7 13
2002-10-29 10:27:41 51°18.516 2°51.148 256 1.1 283.2 13.1
2002-10-29 10:27:45 51°18.516 2°51.146 256 1.1 283.4 13
2002-10-29 10:27:51 51°18.516 2°51.143 255.3 1.1 282 13
2002-10-29 10:27:56 51°18.517 2°51.141 255.3 1.1 284.4 13
2002-10-29 10:28:01 51°18.517 2°51.138 255 1.1 280.7 13
2002-10-29 10:28:06 51°18.517 2°51.136 254.3 1.1 283.9 13
2002-10-29 10:28:12 51°18.518 2°51.133 254.3 1.1 283.1 13.1
2002-10-29 10:28:16 51°18.518 2°51.131 254 1.1 281.5 13.1
2002-10-29 10:28:21 51°18.518 2°51.129 254 1.1 282.1 13.1
2002-10-29 10:28:26 51°18.518 2°51.126 253.7 1.1 280.4 13.1
2002-10-29 10:28:31 51°18.519 2°51.124 253.5 1.1 280.6 13.1
2002-10-29 10:28:36 51°18.519 2°51.122 253.2 1.1 278.5 13
2002-10-29 10:28:41 51°18.519 2°51.119 252.8 1.1 278.3 12.6
2002-10-29 10:28:46 51°18.519 2°51.117 252.2 1.1 278.6 13
2002-10-29 10:28:51 51°18.519 2°51.114 252.2 1.1 279.4 13.1
2002-10-29 10:28:56 51°18.519 2°51.112 251.3 1 273.1 13.1
2002-10-29 10:29:01 51°18.52 2°51.11 251.2 1.1 277.3 13.1
2002-10-29 10:29:06 51°18.52 2°51.107 250.7 1.1 273.8 13.1
2002-10-29 10:29:10 51°18.52 2°51.105 250.3 1.1 274.4 13.1
2002-10-29 10:29:16 51°18.52 2°51.102 249.8 1.1 272.7 13.1
2002-10-29 10:29:21 51°18.52 2°51.1 248.8 1.1 275.3 13
2002-10-29 10:29:26 51°18.52 2°51.098 248.7 1.1 274.5 13
2002-10-29 10:29:31 51°18.52 2°51.096 247.5 1.1 273.3 13
2002-10-29 10:29:35 51°18.521 2°51.093 247.2 1.1 278.9 13.1
2002-10-29 10:29:41 51°18.52 2°51.09 246.7 1.1 274.5 13
2002-10-29 10:29:46 51°18.521 2°51.088 246.3 1.2 278.3 13.1
2002-10-29 10:29:51 51°18.521 2°51.086 245.5 1.2 275.6 13.1
2002-10-29 10:29:56 51°18.521 2°51.083 245.5 1.2 276.6 13.1
2002-10-29 10:30:01 51°18.522 2°51.081 245 1.2 276 13
2002-10-29 10:30:06 51°18.522 2°51.078 244.3 1.1 276.3 13.1
2002-10-29 10:30:11 51°18.522 2°51.076 244.2 1.1 277.3 13.1
2002-10-29 10:30:16 51°18.522 2°51.074 243.7 1.1 273.2 13.1
2002-10-29 10:30:21 51°18.522 2°51.071 243.3 1.2 276.5 13.1
2002-10-29 10:30:25 51°18.522 2°51.069 243.2 1.1 272.4 13
2002-10-29 10:30:31 51°18.522 2°51.066 242.7 1.2 275.3 13.1
2002-10-29 10:30:36 51°18.523 2°51.063 242.7 1.2 274.7 13.1
2002-10-29 10:30:41 51°18.523 2°51.061 242.3 1.1 272.3 13.1
2002-10-29 10:30:46 51°18.523 2°51.059 242 1.1 274.6 13.1
2002-10-29 10:30:51 51°18.523 2°51.056 242 1.1 271.7 13.1
2002-10-29 10:30:56 51°18.523 2°51.054 241.5 1.1 275.2 13.1
2002-10-29 10:31:01 51°18.523 2°51.052 241.3 1.1 271.2 13.1
2002-10-29 10:31:06 51°18.524 2°51.049 241.2 1.2 275.4 13
2002-10-29 10:31:11 51°18.524 2°51.047 241.2 1.2 275.2 13
2002-10-29 10:31:16 51°18.523 2°51.044 240.8 1.1 269.9 13.1
2002-10-29 10:31:21 51°18.524 2°51.041 241.2 1.2 275.8 13
2002-10-29 10:31:26 51°18.524 2°51.039 240.8 1.1 268.4 13
2002-10-29 10:31:30 51°18.524 2°51.036 241 1.2 276.4 13
2002-10-29 10:31:36 51°18.523 2°51.034 241 1.1 268.2 13.1
2002-10-29 10:31:41 51°18.524 2°51.031 240.5 1.1 271.5 13
2002-10-29 10:31:46 51°18.523 2°51.029 240.5 1.1 269.8 13.1
2002-10-29 10:31:51 51°18.523 2°51.027 240.2 1.2 272.1 13.1
2002-10-29 10:31:56 51°18.524 2°51.024 240.5 1.2 273.4 13.1
2002-10-29 10:32:01 51°18.524 2°51.021 240.2 1.2 273 13.1
2002-10-29 10:32:06 51°18.524 2°51.018 240.3 1.2 273.3 13.1
2002-10-29 10:32:10 51°18.524 2°51.017 240.2 1.2 272.7 13.1
2002-10-29 10:32:16 51°18.524 2°51.014 239.8 1.2 271.9 13.1
2002-10-29 10:32:21 51°18.524 2°51.011 239.8 1.2 270.1 13.2
2002-10-29 10:32:26 51°18.524 2°51.008 239.8 1.2 270.8 13.1
2002-10-29 10:32:31 51°18.524 2°51.006 239.5 1.2 269.6 13.1
2002-10-29 10:32:36 51°18.524 2°51.003 239.2 1.2 270.4 13.1
2002-10-29 10:32:41 51°18.524 2°51 239 1.2 268.2 13.1
2002-10-29 10:32:46 51°18.525 2°50.998 239.5 1.2 271.1 13.1
2002-10-29 10:32:50 51°18.525 2°50.996 238.8 1.2 267.8 13
2002-10-29 10:32:56 51°18.525 2°50.992 238.7 1.2 270.4 13.1
2002-10-29 10:33:01 51°18.525 2°50.99 238 1.2 269 13.2
2002-10-29 10:33:06 51°18.525 2°50.987 238.2 1.2 270.8 13.1
2002-10-29 10:33:11 51°18.525 2°50.985 238.2 1.2 271.3 13.1
2002-10-29 10:33:16 51°18.525 2°50.982 237.8 1.2 269.5 13.1
2002-10-29 10:33:21 51°18.525 2°50.979 237.7 1.2 271.8 13.1
2002-10-29 10:33:26 51°18.524 2°50.977 237.5 1.2 271.3 13.1
2002-10-29 10:33:31 51°18.524 2°50.974 237.5 1.2 271.3 13.2
2002-10-29 10:33:36 51°18.525 2°50.971 237.7 1.2 271.6 13.1
2002-10-29 10:33:41 51°18.524 2°50.968 238 1.4 268.5 13
2002-10-29 10:33:46 51°18.523 2°50.964 237.8 1.7 259.1 13.2
2002-10-29 10:33:50 51°18.522 2°50.96 239.3 2.4 251.4 13
2002-10-29 10:33:56 51°18.52 2°50.951 241.2 2.8 249.2 13
2002-10-29 10:34:01 51°18.518 2°50.943 243.2 3.9 246.8 13.1
2002-10-29 10:34:06 51°18.516 2°50.931 247.5 4.7 247.9 13
2002-10-29 10:34:10 51°18.513 2°50.921 251.8 5.9 250.8 13.2
2002-10-29 10:34:16 51°18.511 2°50.903 258.3 6.4 254.3 13
2002-10-29 10:34:21 51°18.509 2°50.887 264.8 7.3 259.3 13
2002-10-29 10:34:26 51°18.509 2°50.869 271.8 7.7 264.1 13.1
2002-10-29 10:34:31 51°18.51 2°50.85 279.2 8.4 271 13
2002-10-29 10:34:35 51°18.512 2°50.834 286.7 8.7 278.3 13.1
2002-10-29 10:34:41 51°18.517 2°50.811 294 9.1 284.8 13
2002-10-29 10:34:46 51°18.522 2°50.792 301 9.3 290.3 13.1
2002-10-29 10:34:50 51°18.528 2°50.778 308.2 9.5 298 13.2
2002-10-29 10:34:56 51°18.538 2°50.757 316 9.6 306.3 13.3
2002-10-29 10:35:01 51°18.547 2°50.742 322.5 9.7 313.2 13.2
2002-10-29 10:35:06 51°18.558 2°50.73 330.2 9.7 319.1 13.3
2002-10-29 10:35:10 51°18.567 2°50.721 338 9.7 324.8 13.4
2002-10-29 10:35:16 51°18.582 2°50.711 345.7 9.7 334.9 13.4
2002-10-29 10:35:21 51°18.595 2°50.705 352.7 9.7 340.9 13.5
2002-10-29 10:35:26 51°18.609 2°50.703 359.8 9.7 348.5 13.4
2002-10-29 10:35:30 51°18.619 2°50.703 7.8 9.6 354.7 13.4
2002-10-29 10:35:36 51°18.635 2°50.706 15.8 9.6 5.7 13.4
2002-10-29 10:35:41 51°18.648 2°50.712 22.8 9.5 11.6 13.5
2002-10-29 10:35:46 51°18.66 2°50.72 30 9.5 19 13.6
2002-10-29 10:35:51 51°18.672 2°50.731 37.3 9.4 28 13.6
2002-10-29 10:35:56 51°18.681 2°50.744 44.7 9.4 32.9 13.6
2002-10-29 10:36:01 51°18.69 2°50.759 52.2 9.4 42.3 13.5
2002-10-29 10:36:06 51°18.698 2°50.776 59.7 9.3 48.4 13.6
2002-10-29 10:36:10 51°18.703 2°50.79 66.8 9.3 57.6 13.6
2002-10-29 10:36:16 51°18.709 2°50.813 73.2 9.3 63.3 13.6
2002-10-29 10:36:21 51°18.711 2°50.833 79.3 9.3 72 13.6
2002-10-29 10:36:26 51°18.714 2°50.854 84 9.4 76.8 13.6
2002-10-29 10:36:31 51°18.716 2°50.874 87.3 9.4 81 13.7
2002-10-29 10:36:36 51°18.717 2°50.895 87.2 9.5 82.5 13.7
2002-10-29 10:36:41 51°18.719 2°50.917 85.5 9.6 82 13.7
2002-10-29 10:36:46 51°18.722 2°50.938 84.8 9.7 80.3 13.7
2002-10-29 10:36:50 51°18.724 2°50.955 83.3 9.8 78.9 13.6
2002-10-29 10:36:56 51°18.728 2°50.981 81 9.9 77 13.6
2002-10-29 10:37:01 51°18.732 2°51.002 78.3 9.9 74.1 13.6
2002-10-29 10:37:06 51°18.736 2°51.023 77.2 9.9 73 13.6
2002-10-29 10:37:10 51°18.74 2°51.039 75.5 10 70.4 13.5
2002-10-29 10:37:16 51°18.746 2°51.064 75 10 69.5 13.5
2002-10-29 10:37:21 51°18.751 2°51.085 75 10.1 68.8 13.5
2002-10-29 10:37:26 51°18.756 2°51.106 75.2 10.1 69.5 13.5
2002-10-29 10:37:30 51°18.76 2°51.123 75 10.2 68.9 13.4
2002-10-29 10:37:36 51°18.765 2°51.148 75.8 10.1 69.9 13.4
2002-10-29 10:37:41 51°18.77 2°51.17 75.2 10.1 70 13.4
2002-10-29 10:37:46 51°18.775 2°51.191 75.8 10.2 70 13.4
2002-10-29 10:37:50 51°18.779 2°51.209 76 10.3 70.1 13.4
2002-10-29 10:37:56 51°18.785 2°51.237 75.3 10.9 70.4 13.4
2002-10-29 10:38:01 51°18.791 2°51.261 75 11.3 69.5 13.4
2002-10-29 10:38:06 51°18.796 2°51.286 75.2 11.7 69.9 13.4
2002-10-29 10:38:10 51°18.801 2°51.306 75 12.2 69.5 13.3
2002-10-29 10:38:16 51°18.808 2°51.338 75.2 12.5 69.7 13.3
2002-10-29 10:38:21 51°18.814 2°51.364 75.2 12.7 69.9 13.4
2002-10-29 10:38:26 51°18.82 2°51.391 75.7 12.7 70 13.4
2002-10-29 10:38:30 51°18.825 2°51.412 75.8 12.8 70.2 13.3
2002-10-29 10:38:36 51°18.832 2°51.445 75.5 12.9 70.4 13.4
2002-10-29 10:38:41 51°18.838 2°51.472 75 13 69.8 13.3
2002-10-29 10:38:46 51°18.844 2°51.499 75.3 13 70 13.3
2002-10-29 10:38:51 51°18.85 2°51.526 75.7 13 70 13.2
2002-10-29 10:38:56 51°18.856 2°51.554 75.5 13.1 70.8 13.2
2002-10-29 10:39:01 51°18.862 2°51.582 75.3 13.2 70.7 13.2
2002-10-29 10:39:06 51°18.868 2°51.609 75.7 13.1 70.6 13.2
2002-10-29 10:39:10 51°18.873 2°51.63 75.8 13 70.8 13.2
2002-10-29 10:39:16 51°18.88 2°51.663 75.7 13 70.9 13.1
2002-10-29 10:39:21 51°18.886 2°51.691 76 13.1 70.6 13.1
2002-10-29 10:39:26 51°18.892 2°51.719 75.7 13.1 70.6 13.2
2002-10-29 10:39:31 51°18.899 2°51.746 75 13.2 70.4 13.1
2002-10-29 10:39:36 51°18.905 2°51.773 75.2 13.1 69.9 13.1
2002-10-29 10:39:41 51°18.911 2°51.801 75 13.1 69.7 13.1
2002-10-29 10:39:46 51°18.917 2°51.828 75.2 13.1 69.8 13
2002-10-29 10:39:50 51°18.922 2°51.85 75.7 13.2 69.9 12.9
2002-10-29 10:39:56 51°18.929 2°51.883 75.3 13.2 70.3 12.9
2002-10-29 10:40:01 51°18.935 2°51.911 75.5 13.2 70.1 13
2002-10-29 10:40:06 51°18.941 2°51.938 75.7 13.1 70.3 12.9
2002-10-29 10:40:10 51°18.946 2°51.96 76.2 13.1 70.1 12.9
2002-10-29 10:40:16 51°18.953 2°51.993 76 13.1 70.7 12.8
2002-10-29 10:40:21 51°18.959 2°52.021 75.5 13.2 70.9 12.9
2002-10-29 10:40:26 51°18.965 2°52.048 75.2 13.2 70.1 12.8
2002-10-29 10:40:31 51°18.971 2°52.076 75.8 13.1 70.7 12.8
2002-10-29 10:40:36 51°18.977 2°52.103 75.5 13.1 70.3 12.7
2002-10-29 10:40:41 51°18.983 2°52.131 75.7 13.1 70.4 12.7
2002-10-29 10:40:46 51°18.989 2°52.158 75.8 13.1 70.6 12.6
2002-10-29 10:40:50 51°18.994 2°52.18 75.8 13.1 70.7 12.6
2002-10-29 10:40:56 51°19.001 2°52.213 75.8 13.1 70.6 12.6
2002-10-29 10:41:01 51°19.007 2°52.24 75.3 13.1 70.1 12.6
2002-10-29 10:41:06 51°19.014 2°52.267 75.5 13.1 70 12.5
2002-10-29 10:41:10 51°19.018 2°52.289 75.5 13.1 70.3 12.5
2002-10-29 10:41:16 51°19.025 2°52.322 75.7 13.1 70 12.5
2002-10-29 10:41:21 51°19.031 2°52.35 75.5 13.1 70.5 12.4
2002-10-29 10:41:26 51°19.037 2°52.377 75.5 13.1 70.3 12.4
2002-10-29 10:41:31 51°19.043 2°52.405 75.8 13.1 70.6 12.4
2002-10-29 10:41:36 51°19.049 2°52.432 75.7 13.1 70.9 12.3
2002-10-29 10:41:41 51°19.056 2°52.459 75.3 13.2 69.7 12.3
2002-10-29 10:41:46 51°19.061 2°52.487 75.3 13.2 70.3 12.3
2002-10-29 10:41:50 51°19.067 2°52.509 75.7 13.1 69.7 12.2
2002-10-29 10:41:56 51°19.074 2°52.542 75.5 13.1 69.9 12.2
2002-10-29 10:42:01 51°19.08 2°52.569 75 13.1 69.7 12.2
2002-10-29 10:42:06 51°19.086 2°52.596 74.8 13.1 69.9 12.2
2002-10-29 10:42:11 51°19.092 2°52.623 75.5 13.1 69.8 12.1
2002-10-29 10:42:16 51°19.098 2°52.65 75.8 13.1 70.5 12.1
2002-10-29 10:42:21 51°19.104 2°52.678 75.8 13.1 70.5 12.1
2002-10-29 10:42:26 51°19.11 2°52.705 75.8 13.1 70.8 12
2002-10-29 10:42:30 51°19.115 2°52.727 75.8 13.1 70.7 12
2002-10-29 10:42:36 51°19.122 2°52.76 75.5 13.1 70.5 11.9
2002-10-29 10:42:41 51°19.128 2°52.788 75.8 13.1 70.6 11.9
2002-10-29 10:42:46 51°19.134 2°52.815 76 13.1 70.6 11.8
2002-10-29 10:42:50 51°19.139 2°52.837 76.5 13.1 71 11.8
2002-10-29 10:42:56 51°19.145 2°52.87 76.2 13.2 70.9 11.8
2002-10-29 10:43:01 51°19.151 2°52.898 76.2 13.2 71.4 11.6
2002-10-29 10:43:06 51°19.157 2°52.925 76 13.1 70.7 11.7
2002-10-29 10:43:11 51°19.163 2°52.953 76.2 13.1 71.2 11.6
2002-10-29 10:43:16 51°19.169 2°52.98 75.2 13.1 70.5 11.6
2002-10-29 10:43:21 51°19.175 2°53.008 75.8 13.1 70.8 11.7
2002-10-29 10:43:26 51°19.181 2°53.035 75.5 13.1 70.1 11.6
2002-10-29 10:43:31 51°19.187 2°53.062 75.8 13.1 70.7 11.6
2002-10-29 10:43:36 51°19.193 2°53.09 75.8 13.1 70.3 11.6
2002-10-29 10:43:41 51°19.199 2°53.117 75.5 13.1 70.4 11.5
2002-10-29 10:43:46 51°19.205 2°53.144 75.2 13.1 70 11.5
2002-10-29 10:43:50 51°19.21 2°53.166 76 13 70.5 11.5
2002-10-29 10:43:56 51°19.217 2°53.199 75.7 13.1 70.1 11.5
2002-10-29 10:44:01 51°19.223 2°53.226 75.5 13.1 70.5 11.5
2002-10-29 10:44:06 51°19.229 2°53.254 75.8 13.1 70.8 11.5
2002-10-29 10:44:11 51°19.235 2°53.281 76 13 70.5 11.4
2002-10-29 10:44:15 51°19.239 2°53.303 76 13 71.5 11.4
2002-10-29 10:44:21 51°19.247 2°53.336 75.7 13.1 70.7 11.4
2002-10-29 10:44:26 51°19.253 2°53.363 76 13.1 70.5 11.4
2002-10-29 10:44:30 51°19.258 2°53.385 75.5 13.1 70.4 11.3
2002-10-29 10:44:36 51°19.265 2°53.418 75.3 13.1 70.1 11.3
2002-10-29 10:44:41 51°19.271 2°53.445 76 13.1 70.7 11.3
2002-10-29 10:44:46 51°19.277 2°53.472 76 13 70.7 11.3
2002-10-29 10:44:50 51°19.281 2°53.494 76 13 71.1 11.3
2002-10-29 10:44:56 51°19.289 2°53.527 76 13.1 70.7 11.3
2002-10-29 10:45:01 51°19.295 2°53.554 75.5 13.1 70 11.3
2002-10-29 10:45:06 51°19.301 2°53.582 75.8 13.1 70.4 11.3
2002-10-29 10:45:11 51°19.307 2°53.609 76 13.1 70.4 11.3
2002-10-29 10:45:16 51°19.313 2°53.636 75.8 13.1 70.7 11.3
2002-10-29 10:45:21 51°19.319 2°53.664 76 13.1 70.6 11.3
2002-10-29 10:45:26 51°19.324 2°53.691 76 13.1 70.8 11.3
2002-10-29 10:45:30 51°19.329 2°53.713 75.5 13.1 70.6 11.3
2002-10-29 10:45:36 51°19.336 2°53.746 75.2 13 70.6 11.2
2002-10-29 10:45:41 51°19.343 2°53.773 74.7 13.1 69.7 11.2
2002-10-29 10:45:46 51°19.349 2°53.8 75 13.1 69.8 11.2
2002-10-29 10:45:50 51°19.354 2°53.822 74.8 13 69.7 11.2
2002-10-29 10:45:56 51°19.361 2°53.854 75.2 13 70 11.2
2002-10-29 10:46:01 51°19.367 2°53.882 75.5 13 70.1 11.2
2002-10-29 10:46:06 51°19.373 2°53.909 75.5 13 70.3 11.2
2002-10-29 10:46:10 51°19.378 2°53.931 75.7 13.1 70.4 11.2
2002-10-29 10:46:16 51°19.385 2°53.963 75.5 13.1 70.3 11.2
2002-10-29 10:46:21 51°19.391 2°53.991 75.7 13 70.3 11.2
2002-10-29 10:46:26 51°19.397 2°54.018 75.8 12.9 70.7 11.2
2002-10-29 10:46:31 51°19.403 2°54.045 75.3 13 70.5 11.1
2002-10-29 10:46:36 51°19.409 2°54.072 75.7 13 70.3 11.2
2002-10-29 10:46:41 51°19.415 2°54.1 75.8 13.1 70.6 11.2
2002-10-29 10:46:46 51°19.421 2°54.127 76 13 70.6 11.2
2002-10-29 10:46:50 51°19.426 2°54.149 76 13 70.8 11.2
2002-10-29 10:46:56 51°19.433 2°54.182 75.8 13.1 70.6 11.2
2002-10-29 10:47:01 51°19.439 2°54.209 76 13.1 70.5 11.2
2002-10-29 10:47:06 51°19.445 2°54.236 75.8 13 70.7 11.2
2002-10-29 10:47:10 51°19.45 2°54.258 76.3 13 70.8 11.2
2002-10-29 10:47:16 51°19.457 2°54.291 75.5 13 70.5 11.2
2002-10-29 10:47:21 51°19.463 2°54.318 76 13 70.6 11.2
2002-10-29 10:47:26 51°19.469 2°54.345 75.5 13 70.6 11.2
2002-10-29 10:47:31 51°19.475 2°54.373 75.7 13 70.6 11.2
2002-10-29 10:47:36 51°19.481 2°54.4 75.5 13.1 70.3 11.1
2002-10-29 10:47:41 51°19.487 2°54.428 75.5 13 70.3 11.2
2002-10-29 10:47:46 51°19.493 2°54.455 75.8 12.9 70.7 11.2
2002-10-29 10:47:50 51°19.497 2°54.477 76 12.9 70.7 11.2
2002-10-29 10:47:56 51°19.505 2°54.509 75.7 13 70.5 11.2
2002-10-29 10:48:01 51°19.511 2°54.536 75.7 13.1 70.2 11.2
2002-10-29 10:48:06 51°19.517 2°54.564 75.7 13.1 70.3 11.2
2002-10-29 10:48:11 51°19.523 2°54.591 75.5 13 70.4 11.2
2002-10-29 10:48:16 51°19.529 2°54.618 76.2 13 70.9 11.2
2002-10-29 10:48:21 51°19.535 2°54.646 76 13 71 11.2
2002-10-29 10:48:26 51°19.54 2°54.674 76 13.1 70.9 11.2
2002-10-29 10:48:30 51°19.545 2°54.696 76.2 13 70.5 11.2
2002-10-29 10:48:36 51°19.552 2°54.729 75.8 13 70.9 11.2
2002-10-29 10:48:41 51°19.558 2°54.756 76 13 70.7 11.2
2002-10-29 10:48:46 51°19.564 2°54.783 76.3 12.9 71.1 11.2
2002-10-29 10:48:50 51°19.568 2°54.805 76.2 13 71.4 11.2
2002-10-29 10:48:56 51°19.576 2°54.838 75.3 13.1 70.6 11.3
2002-10-29 10:49:01 51°19.582 2°54.864 76 13 70.4 11.2
2002-10-29 10:49:06 51°19.587 2°54.892 75.8 12.9 71.3 11.2
2002-10-29 10:49:11 51°19.594 2°54.919 76 12.9 70.3 11.2
2002-10-29 10:49:16 51°19.599 2°54.946 76.2 13 71.1 11.1
2002-10-29 10:49:21 51°19.605 2°54.973 76.2 13 70.5 11.2
2002-10-29 10:49:26 51°19.611 2°55.001 76.3 13 70.9 11.1
2002-10-29 10:49:29 51°19.614 2°55.017 76 13 71.5 11.2
2002-10-29 10:49:36 51°19.622 2°55.055 75.5 12.9 70.5 11.2
2002-10-29 10:49:41 51°19.628 2°55.082 75.7 12.9 70.5 11.2
2002-10-29 10:49:46 51°19.634 2°55.109 75.2 12.9 70.3 11.2
2002-10-29 10:49:50 51°19.639 2°55.13 75.2 13 69.6 11.2
2002-10-29 10:49:56 51°19.647 2°55.163 75.2 13 69.7 11.2
2002-10-29 10:50:01 51°19.653 2°55.189 75.3 13 69.2 11.2